createdAt,value
2022-12-26T00:00:48.863Z,96550.78
2022-12-26T00:03:15.822Z,96548.81
2022-12-26T00:05:42.703Z,96552.38
2022-12-26T00:08:09.551Z,96557.25
2022-12-26T00:10:36.355Z,96559.88
2022-12-26T00:13:40.263Z,96547.81
2022-12-26T00:15:49.987Z,96556.16
2022-12-26T00:18:16.825Z,96559.56
2022-12-26T00:20:43.606Z,96560.00
2022-12-26T00:23:10.371Z,96559.81
2022-12-26T00:25:37.213Z,96568.31
2022-12-26T00:28:04.084Z,96569.91
2022-12-26T00:30:30.942Z,96575.13
2022-12-26T00:32:57.718Z,96569.25
2022-12-26T00:35:24.542Z,96564.47
2022-12-26T00:37:51.401Z,96569.53
2022-12-26T00:40:18.301Z,96567.75
2022-12-26T00:42:45.118Z,96571.50
2022-12-26T00:45:11.948Z,96576.09
2022-12-26T00:47:38.754Z,96578.06
2022-12-26T00:50:12.952Z,96581.69
2022-12-26T00:52:42.469Z,96576.44
2022-12-26T00:55:10.241Z,96580.03
2022-12-26T00:57:37.063Z,96578.06
2022-12-26T01:00:05.509Z,96569.59
2022-12-26T01:02:38.071Z,96578.78
2022-12-26T01:05:07.978Z,96577.47
2022-12-26T01:08:23.409Z,96582.22
2022-12-26T01:10:23.724Z,96574.22
2022-12-26T01:12:50.572Z,96579.09
2022-12-26T01:15:17.766Z,96584.00
2022-12-26T01:17:44.588Z,96581.72
2022-12-26T01:20:11.745Z,96578.16
2022-12-26T01:22:38.823Z,96584.88
2022-12-26T01:25:06.477Z,96595.38
2022-12-26T01:27:33.236Z,96592.63
2022-12-26T01:30:00.089Z,96597.25
2022-12-26T01:32:26.915Z,96594.94
2022-12-26T01:34:55.475Z,96593.34
2022-12-26T01:37:23.538Z,96591.91
2022-12-26T01:39:51.511Z,96591.41
2022-12-26T01:42:22.368Z,96613.94
2022-12-26T01:45:23.171Z,96608.56
2022-12-26T01:47:55.405Z,96611.19
2022-12-26T01:50:42.497Z,96614.31
2022-12-26T01:53:32.623Z,96613.34
2022-12-26T01:56:07.403Z,96620.03
2022-12-26T01:58:47.521Z,96619.53
2022-12-26T02:01:14.969Z,96610.06
2022-12-26T02:04:03.968Z,96611.69
2022-12-26T02:06:32.087Z,96607.78
2022-12-26T02:08:59.360Z,96604.84
2022-12-26T02:11:39.014Z,96610.38
2022-12-26T02:14:07.533Z,96609.06
2022-12-26T02:16:36.353Z,96605.50
2022-12-26T02:19:07.092Z,96616.25
2022-12-26T02:22:03.175Z,96613.31
2022-12-26T02:25:00.312Z,96615.28
2022-12-26T02:28:13.633Z,96604.47
2022-12-26T02:31:06.382Z,96603.50
2022-12-26T02:34:09.774Z,96604.19
2022-12-26T02:37:30.313Z,96606.81
2022-12-26T02:40:23.578Z,96597.34
2022-12-26T02:43:12.064Z,96600.94
2022-12-26T02:46:22.277Z,96603.06
2022-12-26T02:50:05.303Z,96603.56
2022-12-26T02:53:37.830Z,96587.22
2022-12-26T02:56:38.734Z,96589.63
2022-12-26T02:59:55.282Z,96590.94
2022-12-26T03:03:23.619Z,96586.47
2022-12-26T03:06:24.244Z,96587.44
2022-12-26T03:09:22.586Z,96596.63
2022-12-26T03:12:13.077Z,96589.03
2022-12-26T03:14:48.671Z,96603.06
2022-12-26T03:17:30.433Z,96593.25
2022-12-26T03:20:04.365Z,96592.25
2022-12-26T03:22:56.247Z,96603.69
2022-12-26T03:26:13.615Z,96600.09
2022-12-26T03:28:42.104Z,96605.66
2022-12-26T03:31:12.431Z,96607.31
2022-12-26T03:34:04.636Z,96617.47
2022-12-26T03:37:09.504Z,96602.78
2022-12-26T03:40:17.612Z,96608.38
2022-12-26T03:43:32.835Z,96602.16
2022-12-26T03:46:29.920Z,96590.06
2022-12-26T03:49:35.309Z,96599.56
2022-12-26T03:52:49.404Z,96597.31
2022-12-26T03:55:53.789Z,96603.50
2022-12-26T03:58:59.829Z,96598.63
2022-12-26T04:01:48.458Z,96603.50
2022-12-26T04:04:35.891Z,96590.78
2022-12-26T04:07:31.346Z,96583.13
2022-12-26T04:10:30.812Z,96587.22
2022-12-26T04:13:17.776Z,96595.38
2022-12-26T04:16:27.407Z,96611.38
2022-12-26T04:19:24.591Z,96612.00
2022-12-26T04:22:37.013Z,96609.69
2022-12-26T04:25:48.994Z,96619.78
2022-12-26T04:28:38.677Z,96625.34
2022-12-26T04:31:55.192Z,96629.22
2022-12-26T04:35:05.954Z,96621.03
2022-12-26T04:37:54.284Z,96616.47
2022-12-26T04:40:46.164Z,96609.13
2022-12-26T04:43:47.050Z,96615.84
2022-12-26T04:46:16.145Z,96612.47
2022-12-26T04:49:03.537Z,96620.78
2022-12-26T04:51:30.358Z,96612.94
2022-12-26T04:53:57.229Z,96616.53
2022-12-26T04:56:24.055Z,96619.16
2022-12-26T04:58:50.847Z,96620.81
2022-12-26T05:01:36.649Z,96613.28
2022-12-26T05:04:21.991Z,96617.22
2022-12-26T05:07:07.396Z,96620.34
2022-12-26T05:09:34.327Z,96613.00
2022-12-26T05:12:09.332Z,96621.47
2022-12-26T05:14:36.876Z,96617.94
2022-12-26T05:17:24.302Z,96613.38
2022-12-26T05:20:09.791Z,96617.59
2022-12-26T05:23:00.923Z,96631.31
2022-12-26T05:25:59.499Z,96627.06
2022-12-26T05:28:44.523Z,96625.09
2022-12-26T05:31:15.458Z,96635.22
2022-12-26T05:34:01.683Z,96631.31
2022-12-26T05:36:34.829Z,96631.59
2022-12-26T05:39:02.114Z,96633.59
2022-12-26T05:41:28.972Z,96639.13
2022-12-26T05:43:55.742Z,96636.34
2022-12-26T05:46:22.533Z,96638.47
2022-12-26T05:48:49.394Z,96644.81
2022-12-26T05:51:16.170Z,96642.03
2022-12-26T05:53:42.977Z,96647.94
2022-12-26T05:56:16.155Z,96644.34
2022-12-26T05:58:43.578Z,96644.34
2022-12-26T06:01:19.571Z,96643.03
2022-12-26T06:03:49.967Z,96642.19
2022-12-26T06:06:18.112Z,96650.84
2022-12-26T06:08:49.249Z,96645.97
2022-12-26T06:11:17.618Z,96642.88
2022-12-26T06:13:45.166Z,96634.88
2022-12-26T06:16:16.114Z,96634.53
2022-12-26T06:18:43.195Z,96631.44
2022-12-26T06:21:13.919Z,96630.78
2022-12-26T06:23:41.427Z,96640.44
2022-12-26T06:26:10.246Z,96640.75
2022-12-26T06:28:38.269Z,96639.47
2022-12-26T06:31:10.420Z,96642.06
2022-12-26T06:33:37.889Z,96645.94
2022-12-26T06:36:12.720Z,96642.88
2022-12-26T06:38:39.659Z,96641.53
2022-12-26T06:41:08.529Z,96637.13
2022-12-26T06:43:35.569Z,96635.19
2022-12-26T06:46:05.206Z,96631.28
2022-12-26T06:48:33.782Z,96629.31
2022-12-26T06:51:05.444Z,96634.56
2022-12-26T06:53:34.515Z,96629.00
2022-12-26T06:56:16.225Z,96631.28
2022-12-26T06:58:44.002Z,96637.50
2022-12-26T07:01:17.575Z,96635.19
2022-12-26T07:03:51.091Z,96638.16
2022-12-26T07:06:24.182Z,96636.53
2022-12-26T07:08:52.651Z,96646.97
2022-12-26T07:11:23.354Z,96647.28
2022-12-26T07:13:50.532Z,96642.38
2022-12-26T07:16:17.572Z,96639.59
2022-12-26T07:18:44.413Z,96636.16
2022-12-26T07:21:14.878Z,96628.94
2022-12-26T07:23:42.325Z,96628.94
2022-12-26T07:26:09.311Z,96626.97
2022-12-26T07:28:36.087Z,96634.78
2022-12-26T07:31:03.868Z,96634.03
2022-12-26T07:33:31.425Z,96643.13
2022-12-26T07:36:06.586Z,96639.75
2022-12-26T07:38:34.006Z,96631.91
2022-12-26T07:41:20.824Z,96642.09
2022-12-26T07:43:47.667Z,96642.84
2022-12-26T07:46:14.581Z,96640.88
2022-12-26T07:48:41.434Z,96655.88
2022-12-26T07:51:08.200Z,96655.28
2022-12-26T07:53:35.197Z,96651.44
2022-12-26T07:56:02.134Z,96656.75
2022-12-26T07:58:28.945Z,96669.16
2022-12-26T08:00:55.779Z,96669.44
2022-12-26T08:03:23.418Z,96661.75
2022-12-26T08:05:51.459Z,96672.50
2022-12-26T08:08:18.254Z,96668.00
2022-12-26T08:10:45.005Z,96670.63
2022-12-26T08:13:11.840Z,96658.75
2022-12-26T08:15:40.160Z,96647.00
2022-12-26T08:18:08.326Z,96643.22
2022-12-26T08:20:35.257Z,96655.69
2022-12-26T08:23:02.123Z,96653.19
2022-12-26T08:25:29.002Z,96649.91
2022-12-26T08:27:55.815Z,96656.88
2022-12-26T08:30:22.640Z,96662.41
2022-12-26T08:32:51.522Z,96647.81
2022-12-26T08:35:18.404Z,96655.88
2022-12-26T08:37:47.867Z,96648.97
2022-12-26T08:40:15.556Z,96651.31
2022-12-26T08:43:03.329Z,96648.28
2022-12-26T08:45:32.171Z,96653.00
2022-12-26T08:47:59.479Z,96646.22
2022-12-26T08:50:26.475Z,96642.41
2022-12-26T08:52:53.299Z,96638.50
2022-12-26T08:55:20.103Z,96640.94
2022-12-26T08:57:46.906Z,96642.69
2022-12-26T09:00:14.489Z,96643.13
2022-12-26T09:02:41.431Z,96645.59
2022-12-26T09:05:08.441Z,96639.44
2022-12-26T09:07:35.581Z,96643.06
2022-12-26T09:10:02.431Z,96640.63
2022-12-26T09:12:29.248Z,96640.09
2022-12-26T09:14:56.063Z,96637.63
2022-12-26T09:17:23.196Z,96637.56
2022-12-26T09:19:50.035Z,96639.72
2022-12-26T09:22:35.519Z,96649.53
2022-12-26T09:25:02.552Z,96639.03
2022-12-26T09:27:29.584Z,96641.94
2022-12-26T09:29:56.428Z,96649.81
2022-12-26T09:32:23.195Z,96651.66
2022-12-26T09:34:50.100Z,96649.31
2022-12-26T09:37:16.875Z,96656.06
2022-12-26T09:39:43.661Z,96650.66
2022-12-26T09:42:29.753Z,96643.72
2022-12-26T09:45:18.813Z,96648.63
2022-12-26T09:48:39.675Z,96654.75
2022-12-26T09:51:10.055Z,96651.44
2022-12-26T09:53:43.854Z,96650.41
2022-12-26T09:57:01.315Z,96641.88
2022-12-26T09:59:18.019Z,96648.38
2022-12-26T10:01:48.854Z,96647.19
2022-12-26T10:04:29.894Z,96638.22
2022-12-26T10:07:18.051Z,96632.38
2022-12-26T10:10:03.567Z,96617.81
2022-12-26T10:12:46.401Z,96608.63
2022-12-26T10:16:16.678Z,96623.91
2022-12-26T10:19:07.088Z,96613.34
2022-12-26T10:21:44.393Z,96618.69
2022-12-26T10:24:20.553Z,96616.44
2022-12-26T10:26:56.823Z,96612.97
2022-12-26T10:29:50.753Z,96618.31
2022-12-26T10:32:28.239Z,96618.53
2022-12-26T10:34:55.527Z,96611.59
2022-12-26T10:37:39.102Z,96615.06
2022-12-26T10:40:11.952Z,96597.88
2022-12-26T10:42:43.697Z,96600.03
2022-12-26T10:45:45.180Z,96595.13
2022-12-26T10:48:14.652Z,96612.44
2022-12-26T10:50:48.227Z,96604.63
2022-12-26T10:53:16.681Z,96598.53
2022-12-26T10:55:43.714Z,96597.53
2022-12-26T10:58:23.044Z,96607.41
2022-12-26T11:00:49.879Z,96613.03
2022-12-26T11:03:19.740Z,96607.34
2022-12-26T11:06:08.128Z,96611.78
2022-12-26T11:08:49.251Z,96617.94
2022-12-26T11:11:46.053Z,96615.00
2022-12-26T11:14:39.992Z,96623.78
2022-12-26T11:17:23.988Z,96626.50
2022-12-26T11:20:14.882Z,96621.56
2022-12-26T11:22:42.915Z,96623.19
2022-12-26T11:25:09.609Z,96632.69
2022-12-26T11:27:39.256Z,96620.16
2022-12-26T11:30:25.685Z,96638.88
2022-12-26T11:33:17.865Z,96626.50
2022-12-26T11:35:57.911Z,96637.25
2022-12-26T11:38:44.136Z,96631.94
2022-12-26T11:41:36.184Z,96643.13
2022-12-26T11:44:24.357Z,96638.91
2022-12-26T11:47:10.931Z,96647.44
2022-12-26T11:50:03.059Z,96651.69
2022-12-26T11:52:37.281Z,96645.59
2022-12-26T11:55:22.883Z,96655.25
2022-12-26T11:58:08.205Z,96637.47
2022-12-26T12:00:44.104Z,96649.25
2022-12-26T12:03:48.654Z,96666.59
2022-12-26T12:06:32.734Z,96680.81
2022-12-26T12:09:22.473Z,96705.84
2022-12-26T12:12:00.982Z,96714.41
2022-12-26T12:14:46.856Z,96703.81
2022-12-26T12:18:02.816Z,96700.63
2022-12-26T12:20:59.167Z,96711.97
2022-12-26T12:23:53.229Z,96704.72
2022-12-26T12:27:14.595Z,96716.44
2022-12-26T12:30:03.350Z,96720.88
2022-12-26T12:33:19.961Z,96716.03
2022-12-26T12:36:04.552Z,96726.13
2022-12-26T12:38:56.929Z,96716.00
2022-12-26T12:41:58.012Z,96712.72
2022-12-26T12:44:58.440Z,96710.75
2022-12-26T12:47:53.155Z,96711.56
2022-12-26T12:50:58.857Z,96713.56
2022-12-26T12:53:55.441Z,96724.13
2022-12-26T12:56:52.164Z,96727.34
2022-12-26T12:59:29.063Z,96723.72
2022-12-26T13:02:05.608Z,96721.25
2022-12-26T13:04:46.102Z,96726.13
2022-12-26T13:07:22.767Z,96720.25
2022-12-26T13:10:19.621Z,96727.34
2022-12-26T13:12:49.286Z,96738.25
2022-12-26T13:15:19.032Z,96751.16
2022-12-26T13:18:02.757Z,96749.03
2022-12-26T13:20:54.046Z,96745.16
2022-12-26T13:24:02.681Z,96747.38
2022-12-26T13:26:39.077Z,96748.16
2022-12-26T13:29:34.676Z,96745.75
2022-12-26T13:32:07.237Z,96750.22
2022-12-26T13:34:34.153Z,96741.13
2022-12-26T13:37:01.164Z,96740.53
2022-12-26T13:39:27.882Z,96744.13
2022-12-26T13:42:18.533Z,96752.34
2022-12-26T13:44:48.804Z,96762.69
2022-12-26T13:47:37.231Z,96758.63
2022-12-26T13:50:51.607Z,96763.88
2022-12-26T13:53:24.604Z,96771.16
2022-12-26T13:56:05.031Z,96768.94
2022-12-26T13:59:07.385Z,96754.13
2022-12-26T14:02:01.433Z,96758.34
2022-12-26T14:05:00.431Z,96760.72
2022-12-26T14:07:58.610Z,96760.38
2022-12-26T14:10:43.299Z,96768.22
2022-12-26T14:13:30.811Z,96767.06
2022-12-26T14:16:05.231Z,96764.56
2022-12-26T14:18:49.442Z,96784.09
2022-12-26T14:21:36.696Z,96774.41
2022-12-26T14:24:12.375Z,96772.34
2022-12-26T14:27:21.937Z,96770.69
2022-12-26T14:30:07.129Z,96759.50
2022-12-26T14:33:21.560Z,96762.94
2022-12-26T14:36:01.914Z,96773.09
2022-12-26T14:39:06.121Z,96775.00
2022-12-26T14:42:26.569Z,96778.94
2022-12-26T14:44:59.190Z,96782.78
2022-12-26T14:47:47.036Z,96785.06
2022-12-26T14:50:32.389Z,96783.44
2022-12-26T14:53:30.067Z,96789.72
2022-12-26T14:56:15.981Z,96790.22
2022-12-26T14:59:33.561Z,96775.56
2022-12-26T15:02:10.199Z,96749.81
2022-12-26T15:05:15.789Z,96755.00
2022-12-26T15:08:14.346Z,96775.41
2022-12-26T15:11:18.268Z,96765.19
2022-12-26T15:14:19.049Z,96769.91
2022-12-26T15:17:14.269Z,96751.13
2022-12-26T15:20:02.572Z,96739.34
2022-12-26T15:22:59.209Z,96734.53
2022-12-26T15:25:53.790Z,96726.94
2022-12-26T15:29:11.285Z,96735.44
2022-12-26T15:32:24.555Z,96755.47
2022-12-26T15:35:18.675Z,96728.72
2022-12-26T15:38:19.122Z,96727.91
2022-12-26T15:40:52.623Z,96724.59
2022-12-26T15:43:49.560Z,96716.22
2022-12-26T15:46:27.502Z,96723.47
2022-12-26T15:49:21.107Z,96738.72
2022-12-26T15:52:14.700Z,96745.50
2022-12-26T15:55:06.145Z,96739.59
2022-12-26T15:57:40.997Z,96746.28
2022-12-26T16:00:23.358Z,96750.53
2022-12-26T16:03:01.581Z,96738.19
2022-12-26T16:05:48.075Z,96728.88
2022-12-26T16:08:48.201Z,96727.84
2022-12-26T16:11:21.864Z,96746.94
2022-12-26T16:13:57.095Z,96721.38
2022-12-26T16:16:37.357Z,96737.00
2022-12-26T16:19:22.645Z,96738.38
2022-12-26T16:22:16.765Z,96715.81
2022-12-26T16:24:44.569Z,96735.78
2022-12-26T16:27:18.677Z,96735.59
2022-12-26T16:30:09.723Z,96712.34
2022-12-26T16:32:42.253Z,96704.69
2022-12-26T16:35:23.026Z,96713.97
2022-12-26T16:37:51.282Z,96708.47
2022-12-26T16:40:47.020Z,96723.47
2022-12-26T16:43:34.587Z,96753.16
2022-12-26T16:46:06.139Z,96731.50
2022-12-26T16:48:35.741Z,96736.03
2022-12-26T16:51:07.620Z,96736.78
2022-12-26T16:53:37.058Z,96731.38
2022-12-26T16:56:32.504Z,96739.63
2022-12-26T16:59:18.111Z,96727.97
2022-12-26T17:01:56.059Z,96728.25
2022-12-26T17:04:29.176Z,96736.25
2022-12-26T17:07:06.907Z,96733.81
2022-12-26T17:09:45.302Z,96750.25
2022-12-26T17:12:46.871Z,96752.41
2022-12-26T17:15:23.887Z,96762.25
2022-12-26T17:17:50.702Z,96753.09
2022-12-26T17:20:23.273Z,96743.03
2022-12-26T17:22:51.446Z,96733.81
2022-12-26T17:25:20.310Z,96756.44
2022-12-26T17:28:08.239Z,96766.63
2022-12-26T17:30:41.891Z,96753.50
2022-12-26T17:33:28.233Z,96744.78
2022-12-26T17:37:08.287Z,96739.94
2022-12-26T17:38:54.066Z,96744.63
2022-12-26T17:41:20.885Z,96736.00
2022-12-26T17:43:48.652Z,96723.84
2022-12-26T17:46:17.835Z,96726.13
2022-12-26T17:48:45.526Z,96719.25
2022-12-26T17:51:16.507Z,96729.63
2022-12-26T17:53:49.547Z,96757.84
2022-12-26T17:56:21.048Z,96743.97
2022-12-26T17:58:49.070Z,96737.56
2022-12-26T18:01:21.014Z,96716.56
2022-12-26T18:03:48.567Z,96686.91
2022-12-26T18:06:16.564Z,96668.13
2022-12-26T18:08:44.719Z,96721.22
2022-12-26T18:11:13.664Z,96785.88
2022-12-26T18:13:41.650Z,96782.25
2022-12-26T18:16:16.138Z,96773.94
2022-12-26T18:18:45.746Z,96744.38
2022-12-26T18:21:15.128Z,96756.97
2022-12-26T18:23:42.389Z,96761.78
2022-12-26T18:26:25.190Z,96744.78
2022-12-26T18:28:52.248Z,96729.13
2022-12-26T18:31:19.500Z,96738.03
2022-12-26T18:33:46.456Z,96735.25
2022-12-26T18:36:15.618Z,96756.31
2022-12-26T18:38:42.991Z,96746.97
2022-12-26T18:41:15.953Z,96745.78
2022-12-26T18:43:42.834Z,96743.06
2022-12-26T18:46:26.434Z,96747.66
2022-12-26T18:48:54.292Z,96745.16
2022-12-26T18:51:21.481Z,96733.25
2022-12-26T18:53:48.424Z,96747.66
2022-12-26T18:56:19.056Z,96754.34
2022-12-26T18:58:50.099Z,96757.81
2022-12-26T19:01:21.027Z,96741.63
2022-12-26T19:03:47.988Z,96749.03
2022-12-26T19:06:27.015Z,96742.75
2022-12-26T19:08:54.245Z,96734.75
2022-12-26T19:11:21.151Z,96752.97
2022-12-26T19:13:48.164Z,96751.34
2022-12-26T19:16:15.370Z,96739.00
2022-12-26T19:18:42.240Z,96736.63
2022-12-26T19:21:13.937Z,96752.69
2022-12-26T19:23:41.950Z,96758.78
2022-12-26T19:26:11.424Z,96761.28
2022-12-26T19:28:39.087Z,96758.41
2022-12-26T19:31:13.869Z,96756.53
2022-12-26T19:33:41.080Z,96747.13
2022-12-26T19:36:09.041Z,96757.31
2022-12-26T19:38:36.804Z,96739.88
2022-12-26T19:41:14.408Z,96737.44
2022-12-26T19:43:41.683Z,96745.63
2022-12-26T19:46:12.230Z,96743.63
2022-12-26T19:48:39.574Z,96747.03
2022-12-26T19:51:11.391Z,96751.78
2022-12-26T19:53:39.732Z,96749.47
2022-12-26T19:56:18.312Z,96739.19
2022-12-26T19:58:45.670Z,96743.97
2022-12-26T20:01:17.058Z,96735.44
2022-12-26T20:03:44.474Z,96725.06
2022-12-26T20:06:14.789Z,96728.25
2022-12-26T20:08:42.967Z,96730.50
2022-12-26T20:11:16.842Z,96733.00
2022-12-26T20:13:44.918Z,96739.88
2022-12-26T20:16:45.723Z,96752.16
2022-12-26T20:19:02.914Z,96731.88
2022-12-26T20:21:29.742Z,96742.09
2022-12-26T20:24:01.170Z,96757.44
2022-12-26T20:26:29.164Z,96747.34
2022-12-26T20:29:01.317Z,96747.91
2022-12-26T20:31:32.861Z,96745.06
2022-12-26T20:34:02.422Z,96747.66
2022-12-26T20:36:33.392Z,96743.13
2022-12-26T20:39:04.767Z,96757.81
2022-12-26T20:41:31.830Z,96752.09
2022-12-26T20:43:59.007Z,96760.34
2022-12-26T20:46:29.601Z,96776.06
2022-12-26T20:48:56.478Z,96783.31
2022-12-26T20:51:36.470Z,96810.25
2022-12-26T20:54:08.903Z,96825.63
2022-12-26T20:56:36.538Z,96857.72
2022-12-26T20:59:04.649Z,96871.06
2022-12-26T21:01:31.656Z,96862.00
2022-12-26T21:03:59.199Z,96865.50
2022-12-26T21:06:33.945Z,96871.22
2022-12-26T21:09:01.540Z,96878.88
2022-12-26T21:11:36.034Z,96863.13
2022-12-26T21:14:11.985Z,96876.19
2022-12-26T21:16:55.046Z,96884.91
2022-12-26T21:19:24.116Z,96870.34
2022-12-26T21:21:53.650Z,96888.16
2022-12-26T21:24:27.964Z,96882.44
2022-12-26T21:26:55.812Z,96894.88
2022-12-26T21:29:29.970Z,96916.09
2022-12-26T21:31:58.654Z,96913.31
2022-12-26T21:34:28.499Z,96916.66
2022-12-26T21:37:15.683Z,96924.63
2022-12-26T21:39:43.130Z,96926.94
2022-12-26T21:42:10.915Z,96924.38
2022-12-26T21:44:37.888Z,96941.44
2022-12-26T21:47:07.289Z,96944.22
2022-12-26T21:49:34.735Z,96948.22
2022-12-26T21:52:01.556Z,96950.25
2022-12-26T21:54:49.354Z,96954.75
2022-12-26T21:57:17.252Z,96956.66
2022-12-26T21:59:56.640Z,96970.03
2022-12-26T22:02:55.187Z,96958.41
2022-12-26T22:05:25.884Z,96973.22
2022-12-26T22:07:56.422Z,96986.47
2022-12-26T22:10:43.813Z,96984.06
2022-12-26T22:13:10.929Z,96980.03
2022-12-26T22:16:04.506Z,96978.69
2022-12-26T22:18:45.952Z,96971.22
2022-12-26T22:21:16.087Z,96973.16
2022-12-26T22:23:43.821Z,96981.72
2022-12-26T22:26:14.040Z,96978.44
2022-12-26T22:28:42.279Z,96982.97
2022-12-26T22:31:18.469Z,96996.41
2022-12-26T22:33:45.269Z,96997.38
2022-12-26T22:36:12.268Z,96995.13
2022-12-26T22:38:39.248Z,96997.75
2022-12-26T22:41:06.246Z,96995.41
2022-12-26T22:43:33.342Z,97001.03
2022-12-26T22:46:00.228Z,97004.50
2022-12-26T22:48:27.510Z,97007.91
2022-12-26T22:50:55.815Z,97015.78
2022-12-26T22:53:27.658Z,97021.81
2022-12-26T22:56:06.500Z,97020.00
2022-12-26T22:58:34.346Z,97019.81
2022-12-26T23:01:01.318Z,97016.06
2022-12-26T23:03:28.427Z,97024.25
2022-12-26T23:05:56.312Z,97022.25
2022-12-26T23:08:27.624Z,97031.41
2022-12-26T23:10:58.895Z,97038.78
2022-12-26T23:13:26.109Z,97037.38
2022-12-26T23:16:31.285Z,97031.44
2022-12-26T23:19:21.642Z,97034.38
2022-12-26T23:21:50.412Z,97028.44
2022-12-26T23:24:23.197Z,97032.03
2022-12-26T23:27:17.538Z,97037.28
2022-12-26T23:30:03.105Z,97034.03
2022-12-26T23:32:29.934Z,97037.81
2022-12-26T23:34:56.677Z,97048.59
2022-12-26T23:37:23.556Z,97057.00
2022-12-26T23:39:50.335Z,97054.66
2022-12-26T23:42:17.105Z,97051.06
2022-12-26T23:44:43.892Z,97057.00
2022-12-26T23:47:10.737Z,97058.66
2022-12-26T23:49:37.593Z,97056.72
2022-12-26T23:52:04.647Z,97058.81
2022-12-26T23:54:31.415Z,97067.69
2022-12-26T23:56:58.323Z,97054.06
2022-12-26T23:59:25.402Z,97075.66
